Time;durP1;ratioP1;P1;durP2;ratioP2;P2;SDS_P1;SDS_P2;PMS_P1;PMS_P2;Temp;Humidity;BMP_temperature;BMP_pressure;BME280_temperature;BME280_humidity;BME280_pressure;Samples;Min_cycle;Max_cycle;Signal;HPM_P1;HPM_P2
2023/01/08 00:00:15;;;;;;;3.95;1.90;;;;;;;8.81;100.00;100178.84;4974528;28;20038;-94
2023/01/08 00:03:03;;;;;;;3.72;2.30;;;;;;;8.76;100.00;100173.28;4990707;28;20054;-94
2023/01/08 00:05:47;;;;;;;;;;;;;;;;;;;;;
2023/01/08 00:08:30;;;;;;;4.82;1.88;;;;;;;8.72;100.00;100180.16;5004542;28;20030;-94
2023/01/08 00:11:16;;;;;;;3.20;1.90;;;;;;;8.71;100.00;100184.75;4959103;28;20039;-95
2023/01/08 00:14:06;;;;;;;;;;;;;;;;;;;;;
2023/01/08 00:17:02;;;;;;;;;;;;;;;;;;;;;
2023/01/08 00:19:44;;;;;;;;;;;;;;;;;;;;;
2023/01/08 00:22:13;;;;;;;3.80;2.28;;;;;;;8.88;100.00;100182.31;4976000;28;20034;-94
2023/01/08 00:25:23;;;;;;;5.95;2.30;;;;;;;8.93;100.00;100179.78;4958628;28;20031;-94
2023/01/08 00:28:19;;;;;;;;;;;;;;;;;;;;;
2023/01/08 00:31:03;;;;;;;;;;;;;;;;;;;;;
2023/01/08 00:34:25;;;;;;;;;;;;;;;;;;;;;
2023/01/08 00:37:19;;;;;;;;;;;;;;;;;;;;;
2023/01/08 00:40:23;;;;;;;;;;;;;;;;;;;;;
2023/01/08 00:43:04;;;;;;;;;;;;;;;;;;;;;
2023/01/08 00:46:08;;;;;;;4.82;2.15;;;;;;;8.94;100.00;100140.84;4974799;28;20039;-95
2023/01/08 00:53:21;;;;;;;;;;;;;;;;;;;;;
2023/01/08 00:59:26;;;;;;;3.72;2.00;;;;;;;8.98;100.00;100118.78;4974157;28;20043;-95
2023/01/08 01:05:06;;;;;;;3.83;2.13;;;;;;;9.00;100.00;100125.59;4926340;28;20031;-96
2023/01/08 01:07:52;;;;;;;8.35;2.40;;;;;;;9.06;100.00;100110.38;4940572;29;20041;-95
2023/01/08 01:10:45;;;;;;;5.25;1.92;;;;;;;9.05;100.00;100111.41;4938985;29;20047;-96
2023/01/08 01:13:47;;;;;;;;;;;;;;;;;;;;;
2023/01/08 01:19:39;;;;;;;;;;;;;;;;;;;;;
2023/01/08 01:22:43;;;;;;;4.45;2.05;;;;;;;9.00;100.00;100108.56;4956603;29;20046;-96
2023/01/08 01:25:53;;;;;;;;;;;;;;;;;;;;;
2023/01/08 01:28:50;;;;;;;7.15;2.50;;;;;;;9.09;100.00;100110.75;4956516;28;20034;-95
2023/01/08 01:31:34;;;;;;;7.15;2.25;;;;;;;9.07;100.00;100112.03;4951353;29;20081;-95
2023/01/08 01:34:29;;;;;;;6.40;2.78;;;;;;;9.08;100.00;100111.81;4942531;29;20043;-95
2023/01/08 01:37:23;;;;;;;7.85;2.50;;;;;;;9.10;100.00;100093.44;4958923;29;20066;-96
2023/01/08 01:42:57;;;;;;;5.95;2.17;;;;;;;9.06;100.00;100113.88;4936146;29;20070;-94
2023/01/08 01:45:40;;;;;;;;;;;;;;;;;;;;;
2023/01/08 01:48:29;;;;;;;;;;;;;;;;;;;;;
2023/01/08 01:51:34;;;;;;;;;;;;;;;;;;;;;
2023/01/08 01:54:19;;;;;;;;;;;;;;;;;;;;;
2023/01/08 01:57:02;;;;;;;7.57;1.98;;;;;;;8.23;100.00;100136.59;5000471;28;20035;-95
2023/01/08 01:59:49;;;;;;;4.43;1.77;;;;;;;8.02;100.00;100141.28;4980432;28;20057;-95
2023/01/08 02:02:14;;;;;;;8.13;1.85;;;;;;;7.95;100.00;100147.75;4980118;28;20034;-83
2023/01/08 02:04:40;;;;;;;8.35;2.10;;;;;;;7.85;100.00;100157.16;4979709;28;20041;-84
2023/01/08 02:07:15;;;;;;;4.25;1.30;;;;;;;7.68;100.00;100166.78;4947220;28;20077;-83
2023/01/08 02:10:06;;;;;;;7.15;1.52;;;;;;;7.50;100.00;100146.69;4979920;28;20394;-82
2023/01/08 02:12:37;;;;;;;4.22;0.98;;;;;;;7.20;100.00;100136.38;4979854;28;20092;-82
2023/01/08 02:15:20;;;;;;;2.97;0.93;;;;;;;7.05;100.00;100129.56;4997286;28;20031;-82
2023/01/08 02:18:07;;;;;;;3.38;0.70;;;;;;;6.98;100.00;100129.56;4997299;28;20026;-82
2023/01/08 02:20:45;;;;;;;5.82;0.60;;;;;;;6.83;100.00;100111.72;4979206;28;20031;-82
2023/01/08 02:23:32;;;;;;;2.78;0.60;;;;;;;6.77;100.00;100114.44;4997225;28;20026;-82
2023/01/08 02:26:22;;;;;;;3.67;0.50;;;;;;;6.62;100.00;100111.94;4980158;28;20054;-82
2023/01/08 02:28:47;;;;;;;3.75;0.60;;;;;;;6.58;100.00;100110.69;4980020;28;20336;-82
2023/01/08 02:31:15;;;;;;;2.85;0.77;;;;;;;6.55;100.00;100130.81;4996760;28;20037;-82
2023/01/08 02:33:40;;;;;;;5.10;0.70;;;;;;;6.55;100.00;100117.31;4996601;28;20447;-82
2023/01/08 02:36:12;;;;;;;4.85;0.52;;;;;;;6.48;100.00;100111.09;4963143;28;20038;-82
2023/01/08 02:38:50;;;;;;;5.60;0.60;;;;;;;6.46;100.00;100107.78;4996856;28;20113;-82
2023/01/08 02:41:17;;;;;;;2.90;0.50;;;;;;;6.44;100.00;100121.47;4978777;28;20044;-82
2023/01/08 02:43:47;;;;;;;3.35;0.90;;;;;;;6.43;100.00;100116.28;4963182;28;20148;-82
2023/01/08 02:46:18;;;;;;;8.48;0.70;;;;;;;6.43;100.00;100111.72;4978714;28;20037;-81
2023/01/08 02:48:57;;;;;;;7.80;0.95;;;;;;;6.41;100.00;100118.38;4996272;28;20050;-82
2023/01/08 02:51:32;;;;;;;3.90;0.50;;;;;;;6.42;100.00;100111.94;4996378;28;20046;-82
2023/01/08 02:54:02;;;;;;;4.30;1.00;;;;;;;6.38;100.00;100106.13;4996900;28;20026;-82
2023/01/08 02:56:39;;;;;;;5.28;1.38;;;;;;;6.37;100.00;100107.16;4979111;28;20425;-83
2023/01/08 02:59:06;;;;;;;11.35;0.85;;;;;;;6.34;100.00;100091.41;4979598;28;20030;-83
2023/01/08 03:01:33;;;;;;;6.93;0.95;;;;;;;6.34;100.00;100090.59;4978697;28;20530;-83
2023/01/08 03:04:05;;;;;;;5.43;0.73;;;;;;;6.31;100.00;100091.81;4978954;28;20108;-83
2023/01/08 03:06:31;;;;;;;8.68;0.85;;;;;;;6.28;100.00;100086.84;4996632;28;20057;-83
2023/01/08 03:08:58;;;;;;;8.32;0.40;;;;;;;6.27;100.00;100088.69;4978490;28;20085;-83
2023/01/08 03:11:30;;;;;;;7.13;0.90;;;;;;;6.28;100.00;100093.06;4995724;28;20033;-82
2023/01/08 03:13:56;;;;;;;6.70;0.90;;;;;;;6.27;100.00;100091.38;4996222;28;20473;-82
2023/01/08 03:16:37;;;;;;;11.20;1.20;;;;;;;6.24;100.00;100093.69;4978449;28;20030;-83
2023/01/08 03:19:10;;;;;;;3.70;0.65;;;;;;;6.25;100.00;100093.47;4995518;28;20784;-83
2023/01/08 03:21:37;;;;;;;5.72;0.85;;;;;;;6.21;100.00;100086.84;4996102;28;20379;-83
2023/01/08 03:24:03;;;;;;;4.80;0.50;;;;;;;6.21;100.00;100088.72;4962407;28;20117;-85
2023/01/08 03:26:31;;;;;;;7.78;0.57;;;;;;;6.21;100.00;100083.31;4995669;28;20545;-83
2023/01/08 03:28:57;;;;;;;7.38;0.80;;;;;;;6.22;100.00;100090.38;4978322;28;20092;-83
2023/01/08 03:31:26;;;;;;;5.53;0.80;;;;;;;6.19;100.00;100083.53;4978398;28;20463;-83
2023/01/08 03:33:53;;;;;;;7.70;0.55;;;;;;;6.22;100.00;100080.41;4978097;28;20093;-83
2023/01/08 03:36:22;;;;;;;6.00;0.50;;;;;;;6.21;100.00;100077.94;4995587;28;20034;-83
2023/01/08 03:39:15;;;;;;;3.47;0.50;;;;;;;6.21;100.00;100078.75;4977994;28;20030;-83
2023/01/08 03:41:41;;;;;;;3.47;0.50;;;;;;;6.22;100.00;100076.91;4978248;28;20034;-84
2023/01/08 03:44:06;;;;;;;10.10;1.03;;;;;;;6.21;100.00;100073.38;4977682;28;20511;-83
2023/01/08 03:46:38;;;;;;;5.07;0.60;;;;;;;6.22;100.00;100072.34;4977850;28;20304;-84
2023/01/08 03:49:06;;;;;;;4.40;0.50;;;;;;;6.23;100.00;100074.00;4995415;28;20105;-83
2023/01/08 03:51:39;;;;;;;7.43;0.80;;;;;;;6.24;100.00;100072.13;4994929;28;20027;-83
2023/01/08 03:54:08;;;;;;;5.93;0.70;;;;;;;6.26;100.00;100070.91;4977469;28;20034;-83
2023/01/08 03:56:33;;;;;;;7.68;0.80;;;;;;;6.25;100.00;100068.41;4995120;28;20034;-83
2023/01/08 03:58:58;;;;;;;5.50;0.70;;;;;;;6.29;100.00;100077.75;4977553;28;20117;-83
2023/01/08 04:01:27;;;;;;;8.20;0.70;;;;;;;6.29;100.00;100062.41;4961659;28;20478;-83
2023/01/08 04:03:52;;;;;;;3.00;0.70;;;;;;;6.30;100.00;100066.75;4994668;28;20073;-84
2023/01/08 04:06:17;;;;;;;5.40;0.90;;;;;;;6.30;100.00;100068.59;4977409;28;20074;-83
2023/01/08 04:08:46;;;;;;;6.97;0.73;;;;;;;6.26;100.00;100060.13;4994927;28;20043;-83
2023/01/08 04:11:11;;;;;;;6.32;0.82;;;;;;;6.29;100.00;100056.19;4977186;28;20034;-83
2023/01/08 04:13:37;;;;;;;7.70;0.70;;;;;;;6.24;100.00;100048.69;4961829;28;20076;-83
2023/01/08 04:16:02;;;;;;;3.57;0.70;;;;;;;6.23;100.00;100041.69;4977104;28;20027;-83
2023/01/08 04:18:28;;;;;;;6.55;1.10;;;;;;;6.22;100.00;100034.63;4961354;28;20286;-85
2023/01/08 04:20:53;;;;;;;6.23;1.03;;;;;;;6.24;100.00;100047.88;4961581;28;20034;-83
2023/01/08 04:23:19;;;;;;;4.63;0.90;;;;;;;6.26;100.00;100059.25;4961564;28;20062;-83
2023/01/08 04:25:44;;;;;;;6.37;1.30;;;;;;;6.35;100.00;100059.91;4945703;28;20030;-83
2023/01/08 04:28:09;;;;;;;7.35;1.30;;;;;;;6.36;100.00;100058.88;4977447;28;20037;-83
2023/01/08 04:30:35;;;;;;;5.87;1.20;;;;;;;6.37;100.00;100050.56;4994299;28;20069;-83
2023/01/08 04:33:01;;;;;;;8.18;1.40;;;;;;;6.38;100.00;100043.31;4961082;28;20034;-83
2023/01/08 04:35:29;;;;;;;6.43;1.25;;;;;;;6.39;100.00;100039.59;4977619;28;20037;-84
2023/01/08 04:37:55;;;;;;;8.93;1.25;;;;;;;6.39;100.00;100035.06;4961506;28;20368;-83
2023/01/08 04:40:20;;;;;;;4.75;1.20;;;;;;;6.38;100.00;100040.63;4977139;28;20068;-83
2023/01/08 04:42:46;;;;;;;5.13;1.10;;;;;;;6.36;100.00;100040.81;4994127;28;20049;-83
2023/01/08 04:45:11;;;;;;;6.30;1.63;;;;;;;6.35;100.00;100038.34;4976812;28;20049;-83
2023/01/08 04:47:36;;;;;;;5.40;1.30;;;;;;;6.35;100.00;100035.66;4994113;28;20391;-83
2023/01/08 04:50:02;;;;;;;5.17;1.30;;;;;;;6.35;100.00;100036.50;4977055;28;20081;-83
2023/01/08 04:52:28;;;;;;;4.75;1.20;;;;;;;6.34;100.00;100050.19;4976812;28;20064;-83
2023/01/08 04:54:53;;;;;;;4.22;1.45;;;;;;;6.32;100.00;100043.13;4977052;28;20033;-83
2023/01/08 04:57:19;;;;;;;3.73;1.10;;;;;;;6.37;100.00;100045.19;4976769;28;20042;-82
2023/01/08 04:59:44;;;;;;;4.03;1.13;;;;;;;6.36;100.00;100042.72;4993936;28;20027;-83
2023/01/08 05:02:10;;;;;;;6.00;1.08;;;;;;;6.34;100.00;100047.47;4977220;28;20169;-83
2023/01/08 05:04:35;;;;;;;4.55;1.20;;;;;;;6.32;100.00;100045.00;4979565;28;20399;-83
2023/01/08 05:07:02;;;;;;;6.70;1.13;;;;;;;6.27;100.00;100045.59;4998197;28;20497;-82
2023/01/08 05:09:27;;;;;;;6.30;0.98;;;;;;;6.26;100.00;100043.97;4980705;28;20073;-83
2023/01/08 05:11:53;;;;;;;3.67;0.80;;;;;;;6.27;100.00;100045.59;4980702;28;20031;-83
2023/01/08 05:14:18;;;;;;;6.50;0.87;;;;;;;6.27;100.00;100044.78;4998429;28;20077;-82
2023/01/08 05:16:43;;;;;;;1.93;0.57;;;;;;;6.29;100.00;100040.03;4998099;28;20109;-83
2023/01/08 05:19:09;;;;;;;5.10;0.80;;;;;;;6.31;100.00;100046.03;4998051;28;20368;-83
2023/01/08 05:21:36;;;;;;;3.78;0.60;;;;;;;6.32;100.00;100045.81;4965277;28;20050;-83
2023/01/08 05:24:02;;;;;;;2.57;0.60;;;;;;;6.34;100.00;100034.81;4980904;28;20034;-83
2023/01/08 05:26:27;;;;;;;6.35;0.77;;;;;;;6.35;100.00;100038.34;4964335;28;20075;-83
2023/01/08 05:28:52;;;;;;;1.87;0.57;;;;;;;6.34;100.00;100028.63;4997807;28;20030;-83
2023/01/08 05:31:18;;;;;;;2.60;0.50;;;;;;;6.32;100.00;100031.53;4980606;28;20041;-83
2023/01/08 05:33:43;;;;;;;4.77;0.60;;;;;;;6.32;100.00;100018.06;4997780;28;20077;-84
2023/01/08 05:36:10;;;;;;;3.47;0.57;;;;;;;6.37;100.00;100018.25;4980267;28;20141;-83
2023/01/08 05:38:36;;;;;;;2.88;0.60;;;;;;;6.31;100.00;100011.81;4980150;28;20296;-83
2023/01/08 05:41:03;;;;;;;5.43;0.80;;;;;;;6.27;100.00;100021.34;4997665;28;20034;-83
2023/01/08 05:43:31;;;;;;;5.00;0.73;;;;;;;6.20;100.00;100020.53;4980156;28;20046;-83
2023/01/08 05:46:01;;;;;;;5.00;0.50;;;;;;;6.13;100.00;100022.41;4997320;28;20121;-83
2023/01/08 05:48:28;;;;;;;5.67;0.50;;;;;;;6.11;100.00;100021.75;4979599;28;20050;-83
2023/01/08 05:50:54;;;;;;;5.60;0.70;;;;;;;6.07;100.00;100020.53;4997780;28;20055;-83
2023/01/08 05:53:19;;;;;;;6.82;0.82;;;;;;;6.01;100.00;100019.50;4964380;28;20470;-83
2023/01/08 05:55:45;;;;;;;4.20;0.53;;;;;;;5.93;100.00;100020.47;4979880;28;20039;-83
2023/01/08 05:58:11;;;;;;;4.33;0.70;;;;;;;5.93;100.00;100019.66;4997383;28;20034;-83
2023/01/08 06:00:37;;;;;;;2.80;0.70;;;;;;;5.91;100.00;100021.72;4979956;28;20042;-83
2023/01/08 06:03:03;;;;;;;4.07;0.50;;;;;;;5.85;100.00;100036.00;4963754;28;20347;-83
2023/01/08 06:05:34;;;;;;;4.07;0.80;;;;;;;5.80;100.00;100033.91;4963536;28;20034;-83
2023/01/08 06:07:59;;;;;;;6.43;0.82;;;;;;;5.78;100.00;100038.69;4997536;28;20038;-83
2023/01/08 06:10:25;;;;;;;6.37;0.77;;;;;;;5.74;100.00;100045.50;4997156;28;20030;-83
2023/01/08 06:12:50;;;;;;;3.97;0.83;;;;;;;5.69;100.00;100054.19;4979723;28;20089;-83
2023/01/08 06:15:16;;;;;;;3.55;0.70;;;;;;;5.66;100.00;100048.38;4979264;28;20356;-83
2023/01/08 06:17:42;;;;;;;5.03;0.80;;;;;;;5.61;100.00;100041.75;4996993;28;20109;-83
2023/01/08 06:20:08;;;;;;;4.27;0.63;;;;;;;5.60;100.00;100037.38;4996999;28;20471;-83
2023/01/08 06:22:34;;;;;;;4.80;0.50;;;;;;;5.58;100.00;100044.00;4964160;28;20745;-83
2023/01/08 06:24:59;;;;;;;4.57;0.70;;;;;;;5.54;100.00;100045.44;4979414;28;20176;-83
2023/01/08 06:27:25;;;;;;;6.23;1.00;;;;;;;5.46;100.00;100046.44;4996767;28;20038;-83
2023/01/08 06:29:50;;;;;;;3.27;0.77;;;;;;;5.39;100.00;100051.81;4996494;28;20113;-83
2023/01/08 06:32:16;;;;;;;5.80;0.93;;;;;;;5.39;100.00;100045.59;4979422;28;20747;-83
2023/01/08 06:34:41;;;;;;;5.90;0.70;;;;;;;5.36;100.00;100056.75;4978876;28;20054;-84
2023/01/08 06:37:06;;;;;;;4.53;0.73;;;;;;;5.33;100.00;100058.00;4979718;28;20030;-82
2023/01/08 06:39:32;;;;;;;4.57;0.53;;;;;;;5.27;100.00;100058.81;4963740;28;20026;-83
2023/01/08 06:41:57;;;;;;;5.57;0.85;;;;;;;5.26;100.00;100068.72;4979501;28;20503;-83
2023/01/08 06:44:23;;;;;;;4.90;0.75;;;;;;;5.22;100.00;100063.94;4962949;28;20061;-83
2023/01/08 06:46:48;;;;;;;2.30;0.50;;;;;;;5.24;100.00;100072.63;4996503;28;20026;-83
2023/01/08 06:49:14;;;;;;;11.10;0.80;;;;;;;5.30;100.00;100068.31;4978722;28;20406;-84
2023/01/08 06:51:39;;;;;;;5.72;0.50;;;;;;;5.24;100.00;100067.25;4996370;28;20084;-83
2023/01/08 06:54:05;;;;;;;10.17;1.10;;;;;;;5.24;100.00;100065.41;4962959;28;20117;-83
2023/01/08 06:56:30;;;;;;;10.67;1.13;;;;;;;5.24;100.00;100073.47;4946789;28;20037;-83
2023/01/08 06:58:55;;;;;;;7.20;0.80;;;;;;;5.23;100.00;100073.66;4962095;28;20479;-83
2023/01/08 07:01:21;;;;;;;8.70;0.98;;;;;;;5.25;100.00;100074.28;4962639;28;20530;-84
2023/01/08 07:03:48;;;;;;;7.00;0.83;;;;;;;5.25;100.00;100066.22;4946422;28;20407;-83
2023/01/08 07:06:15;;;;;;;5.85;1.00;;;;;;;5.25;100.00;100074.28;4978526;28;20053;-83
2023/01/08 07:08:45;;;;;;;8.15;0.95;;;;;;;5.33;100.00;100075.97;4978481;28;20037;-83
2023/01/08 07:11:11;;;;;;;6.75;0.93;;;;;;;5.26;100.00;100063.34;4978190;28;20034;-83
2023/01/08 07:13:36;;;;;;;8.17;0.90;;;;;;;5.27;100.00;100065.00;4978201;28;20121;-83
2023/01/08 07:16:09;;;;;;;12.07;1.27;;;;;;;5.25;100.00;100061.66;4978374;28;20125;-84
2023/01/08 07:18:35;;;;;;;9.30;0.80;;;;;;;5.28;100.00;100057.75;4978340;28;20026;-83
2023/01/08 07:21:02;;;;;;;4.18;0.90;;;;;;;5.31;100.00;100061.91;4978540;28;20470;-84
2023/01/08 07:23:28;;;;;;;9.65;1.40;;;;;;;5.28;100.00;100060.44;4978311;28;20117;-83
2023/01/08 07:25:53;;;;;;;8.43;0.93;;;;;;;5.29;100.00;100063.97;4995894;28;20475;-84
2023/01/08 07:28:19;;;;;;;6.87;0.90;;;;;;;5.27;100.00;100056.09;4977608;28;20064;-84
2023/01/08 07:30:44;;;;;;;14.83;1.50;;;;;;;5.30;100.00;100065.63;4961783;28;20030;-84
2023/01/08 07:33:09;;;;;;;11.93;1.17;;;;;;;5.23;100.00;100065.59;4962164;28;20038;-83
2023/01/08 07:35:37;;;;;;;11.13;0.80;;;;;;;5.20;100.00;100058.75;4962685;28;20049;-83
2023/01/08 07:38:02;;;;;;;7.30;1.05;;;;;;;5.18;100.00;100058.13;4962146;28;20281;-83
2023/01/08 07:40:28;;;;;;;8.98;1.05;;;;;;;5.13;100.00;100075.91;4977957;28;20360;-83
2023/01/08 07:43:01;;;;;;;10.73;0.80;;;;;;;5.13;100.00;100067.81;4946182;28;20426;-83
2023/01/08 07:45:33;;;;;;;10.40;0.70;;;;;;;5.10;100.00;100064.47;4977874;28;20026;-83
2023/01/08 07:48:01;;;;;;;13.85;1.60;;;;;;;5.07;100.00;100064.88;4978451;28;20344;-84
2023/01/08 07:50:27;;;;;;;9.38;0.90;;;;;;;5.04;100.00;100059.91;4977207;28;20054;-85
2023/01/08 07:52:56;;;;;;;6.75;1.10;;;;;;;4.99;100.00;100054.31;4961935;28;20092;-84
2023/01/08 07:55:21;;;;;;;8.20;0.70;;;;;;;5.00;100.00;100063.19;4977910;28;20054;-84
2023/01/08 07:57:47;;;;;;;10.27;0.97;;;;;;;5.00;100.00;100052.44;4977436;28;20054;-84
2023/01/08 08:00:13;;;;;;;9.93;1.15;;;;;;;5.04;100.00;100043.78;4977425;28;20811;-83
2023/01/08 08:02:39;;;;;;;4.93;0.90;;;;;;;5.04;100.00;100051.84;4961971;28;20542;-83
2023/01/08 08:05:04;;;;;;;4.90;0.65;;;;;;;5.08;100.00;100057.66;4994942;28;20072;-84
2023/01/08 08:07:34;;;;;;;8.57;1.10;;;;;;;5.14;100.00;100039.88;4945107;28;20038;-84
2023/01/08 08:10:00;;;;;;;6.70;0.70;;;;;;;5.21;100.00;100038.06;4962513;28;20109;-83
2023/01/08 08:12:25;;;;;;;9.93;0.80;;;;;;;5.29;100.00;100031.69;4977485;28;20125;-84
2023/01/08 08:14:51;;;;;;;7.50;0.70;;;;;;;5.35;100.00;100020.94;4961530;28;20467;-84
2023/01/08 08:17:16;;;;;;;7.20;1.42;;;;;;;5.40;100.00;100023.88;4977278;28;20085;-84
2023/01/08 08:19:43;;;;;;;8.83;0.80;;;;;;;5.45;100.00;100013.34;4961198;28;20034;-83
2023/01/08 08:22:08;;;;;;;8.73;0.77;;;;;;;5.53;100.00;100011.50;4976827;28;20042;-84
2023/01/08 08:24:34;;;;;;;10.00;1.93;;;;;;;5.61;100.00;100006.75;4976869;28;20411;-83
2023/01/08 08:26:59;;;;;;;8.85;1.65;;;;;;;5.67;100.00;100005.13;4977674;28;20026;-83
2023/01/08 08:29:25;;;;;;;8.53;0.73;;;;;;;5.73;100.00;100008.84;4994490;28;20049;-83
2023/01/08 08:31:50;;;;;;;7.70;1.43;;;;;;;5.73;100.00;100017.75;4977700;28;20080;-83
2023/01/08 08:34:16;;;;;;;6.60;0.70;;;;;;;5.72;100.00;100017.97;4994531;28;20459;-83
2023/01/08 08:36:41;;;;;;;6.72;0.73;;;;;;;5.71;100.00;100017.09;4944957;28;20069;-83
2023/01/08 08:39:06;;;;;;;4.10;1.20;;;;;;;5.70;100.00;100015.47;4976708;28;20468;-86
2023/01/08 08:41:32;;;;;;;4.27;0.70;;;;;;;5.66;100.00;100024.97;4976793;28;20035;-84
2023/01/08 08:44:00;;;;;;;7.33;0.73;;;;;;;5.63;100.00;100015.44;4961194;28;20038;-84
2023/01/08 08:46:26;;;;;;;7.72;1.70;;;;;;;5.62;100.00;100015.66;4977153;28;20031;-84
2023/01/08 08:48:53;;;;;;;9.13;1.00;;;;;;;5.62;100.00;100012.97;4974912;28;20149;-84
2023/01/08 08:51:19;;;;;;;6.23;0.80;;;;;;;5.64;100.00;100010.91;4977416;28;20080;-84
2023/01/08 08:53:44;;;;;;;9.05;0.85;;;;;;;5.64;100.00;100013.59;4977079;28;20034;-84
2023/01/08 08:56:12;;;;;;;10.50;1.13;;;;;;;5.64;100.00;100005.53;4977632;28;20490;-84
2023/01/08 08:58:40;;;;;;;9.57;1.48;;;;;;;5.63;100.00;100006.56;4960916;28;20121;-83
2023/01/08 09:01:06;;;;;;;8.27;1.00;;;;;;;5.60;100.00;100005.09;4976736;28;20029;-84
2023/01/08 09:03:32;;;;;;;10.80;1.25;;;;;;;5.55;100.00;100001.34;4976698;28;20026;-84
2023/01/08 09:05:58;;;;;;;7.75;0.60;;;;;;;5.54;100.00;100005.91;4976363;28;20030;-83
2023/01/08 09:08:29;;;;;;;10.73;1.20;;;;;;;5.52;100.00;100007.13;4960684;28;20382;-84
2023/01/08 09:10:55;;;;;;;7.82;0.80;;;;;;;5.48;100.00;99995.97;4977005;28;20031;-84
2023/01/08 09:13:22;;;;;;;9.77;1.10;;;;;;;5.48;100.00;99993.28;4976141;28;20030;-85
2023/01/08 09:15:48;;;;;;;10.65;0.90;;;;;;;5.47;100.00;99991.59;4960358;28;20039;-84
2023/01/08 09:18:18;;;;;;;9.00;2.13;;;;;;;5.44;100.00;99989.31;4976665;28;20034;-85
2023/01/08 09:20:43;;;;;;;8.27;1.02;;;;;;;5.42;100.00;99992.22;4994001;28;20026;-87
2023/01/08 09:23:09;;;;;;;4.97;0.87;;;;;;;5.45;100.00;99994.50;4960704;28;20542;-85
2023/01/08 09:25:34;;;;;;;9.48;1.52;;;;;;;5.47;100.00;99990.78;4993936;28;20493;-85
2023/01/08 09:28:06;;;;;;;12.03;1.00;;;;;;;5.49;100.00;99997.59;4976299;28;20475;-84
2023/01/08 09:30:35;;;;;;;9.85;1.10;;;;;;;5.53;100.00;99982.72;4993546;28;20076;-84
2023/01/08 09:33:02;;;;;;;8.53;0.83;;;;;;;5.63;100.00;99985.03;4976423;28;20026;-85
2023/01/08 09:35:28;;;;;;;9.27;1.15;;;;;;;5.66;100.00;99978.41;4976835;28;20425;-84
2023/01/08 09:37:55;;;;;;;13.15;1.20;;;;;;;5.69;100.00;99976.13;4976504;28;20072;-84
2023/01/08 09:40:30;;;;;;;9.88;0.80;;;;;;;5.74;100.00;99973.66;4993838;28;20086;-84
2023/01/08 09:43:00;;;;;;;6.82;0.80;;;;;;;5.75;100.00;99969.09;4976690;28;20022;-84
2023/01/08 09:45:29;;;;;;;15.63;1.53;;;;;;;5.78;100.00;99969.50;4976127;28;20081;-84
2023/01/08 09:47:59;;;;;;;8.93;1.05;;;;;;;5.81;100.00;99962.88;4993906;28;20022;-84
2023/01/08 09:50:28;;;;;;;9.10;1.45;;;;;;;5.84;100.00;99962.47;4976954;28;20050;-84
2023/01/08 09:52:54;;;;;;;10.05;1.13;;;;;;;5.83;100.00;99960.84;4997356;28;20038;-85
2023/01/08 09:55:22;;;;;;;8.30;1.17;;;;;;;5.88;100.00;99952.97;4964314;28;20360;-85
2023/01/08 09:57:48;;;;;;;7.47;1.25;;;;;;;5.88;100.00;99958.34;4979628;28;20285;-85
2023/01/08 10:00:18;;;;;;;8.63;0.82;;;;;;;5.93;100.00;99953.16;4997001;28;20108;-85
2023/01/08 10:02:44;;;;;;;10.60;1.67;;;;;;;5.98;100.00;99957.97;4979857;28;20463;-85
2023/01/08 10:05:17;;;;;;;8.90;1.05;;;;;;;5.99;100.00;99954.22;4963389;28;20030;-84
2023/01/08 10:07:44;;;;;;;6.35;1.48;;;;;;;6.04;100.00;99953.59;4979821;28;20033;-84
2023/01/08 10:10:27;;;;;;;6.00;0.70;;;;;;;6.08;100.00;99955.69;4963626;28;20121;-84
2023/01/08 10:12:53;;;;;;;6.80;1.00;;;;;;;6.20;100.00;99961.28;4979592;28;20062;-84
2023/01/08 10:15:21;;;;;;;8.43;1.00;;;;;;;6.24;100.00;99954.41;4979779;28;20065;-84
2023/01/08 10:17:54;;;;;;;6.50;1.27;;;;;;;6.32;100.00;99950.69;4979511;28;20052;-85
2023/01/08 10:20:28;;;;;;;4.32;0.60;;;;;;;6.36;100.00;99941.13;4980237;28;20026;-85
2023/01/08 10:23:14;;;;;;;10.10;1.05;;;;;;;6.45;100.00;99947.13;4979627;28;20383;-84
2023/01/08 10:25:53;;;;;;;9.65;0.82;;;;;;;6.50;100.00;99939.25;4997391;28;20053;-84
2023/01/08 10:28:24;;;;;;;10.02;1.13;;;;;;;6.58;100.00;99946.28;4997389;28;20030;-84
2023/01/08 10:30:59;;;;;;;6.28;0.90;;;;;;;6.57;100.00;99934.69;4979469;28;20034;-84
2023/01/08 10:33:48;;;;;;;4.80;1.00;;;;;;;6.61;100.00;99937.78;4979702;28;20403;-84
2023/01/08 10:36:16;;;;;;;4.68;0.85;;;;;;;6.65;100.00;99939.00;4981018;28;20030;-84
2023/01/08 10:38:51;;;;;;;5.38;0.73;;;;;;;6.69;100.00;99942.94;4979055;28;20441;-84
2023/01/08 10:41:17;;;;;;;5.40;0.40;;;;;;;6.71;100.00;99931.94;4980003;28;20037;-84
2023/01/08 10:43:55;;;;;;;3.55;0.85;;;;;;;6.80;100.00;99925.28;4997260;28;20049;-84
2023/01/08 10:46:31;;;;;;;6.50;0.85;;;;;;;6.84;100.00;99915.72;4978899;28;20038;-85
2023/01/08 10:49:00;;;;;;;4.00;0.60;;;;;;;6.92;100.00;99912.78;4995922;28;20031;-84
2023/01/08 10:51:28;;;;;;;6.28;0.50;;;;;;;6.96;100.00;99915.88;4956469;28;20051;-84
2023/01/08 10:53:57;;;;;;;3.53;0.50;;;;;;;7.05;100.00;99921.84;4956413;29;20121;-84
2023/01/08 10:56:24;;;;;;;1.00;0.40;;;;;;;7.09;100.00;99896.94;4957473;28;20039;-84
2023/01/08 10:58:51;;;;;;;1.83;0.63;;;;;;;7.13;100.00;99897.31;4956126;29;20041;-84
2023/01/08 11:01:23;;;;;;;2.05;0.40;;;;;;;7.21;100.00;99891.69;4957351;28;20042;-85
2023/01/08 11:04:00;;;;;;;2.90;0.30;;;;;;;7.26;100.00;99899.13;4956427;29;20483;-84
2023/01/08 11:06:30;;;;;;;0.98;0.40;;;;;;;7.33;100.00;99886.41;4955863;29;20037;-85
2023/01/08 11:09:00;;;;;;;2.03;0.40;;;;;;;7.38;100.00;99887.41;4955362;29;20044;-84
2023/01/08 11:11:34;;;;;;;1.33;0.30;;;;;;;7.46;100.00;99891.72;4940037;29;20035;-84
2023/01/08 11:14:02;;;;;;;1.42;0.30;;;;;;;7.50;100.00;99874.06;4955688;29;20031;-85
2023/01/08 11:16:37;;;;;;;1.88;0.45;;;;;;;7.71;100.00;99875.53;4955711;29;20027;-86
2023/01/08 11:19:04;;;;;;;0.63;0.55;;;;;;;7.82;100.00;99867.78;4956161;29;20065;-86
2023/01/08 11:21:35;;;;;;;1.75;0.30;;;;;;;7.95;100.00;99880.34;4955380;29;20035;-86
2023/01/08 11:24:16;;;;;;;1.88;0.30;;;;;;;8.04;100.00;99858.19;4939888;29;20197;-87
2023/01/08 11:26:47;;;;;;;0.60;0.20;;;;;;;8.12;100.00;99851.72;4956018;29;20031;-85
2023/01/08 11:29:32;;;;;;;1.48;0.30;;;;;;;8.24;100.00;99855.31;4955838;29;20059;-85
2023/01/08 11:34:41;;;;;;;1.80;0.40;;;;;;;8.50;100.00;99853.38;5100964;27;1550380;-88
2023/01/08 11:37:20;;;;;;;2.42;0.65;;;;;;;8.66;100.00;99834.91;5130978;28;20555;-86
2023/01/08 11:39:48;;;;;;;1.70;0.30;;;;;;;8.84;100.00;99840.25;5132008;27;20098;-85
2023/01/08 11:42:31;;;;;;;1.17;0.30;;;;;;;8.93;99.05;99840.78;5113947;28;20372;-83
2023/01/08 11:45:09;;;;;;;2.55;0.40;;;;;;;8.91;98.33;99840.19;5131172;28;20035;-84
2023/01/08 11:47:41;;;;;;;1.65;0.45;;;;;;;8.95;98.36;99833.28;5130635;28;20470;-89
2023/01/08 11:50:24;;;;;;;;;;;;;;;;;;;;;
2023/01/08 11:53:14;;;;;;;1.35;0.38;;;;;;;10.92;93.70;99820.41;5131697;28;20047;-82
2023/01/08 11:55:52;;;;;;;1.45;0.40;;;;;;;12.31;85.09;99817.19;5130515;28;20390;-86
2023/01/08 11:58:50;;;;;;;5.68;0.43;;;;;;;13.18;79.84;99815.44;5130410;28;20399;-84
2023/01/08 12:01:21;;;;;;;4.03;1.08;;;;;;;12.95;79.56;99811.97;5130271;28;20543;-84
2023/01/08 12:04:08;;;;;;;4.55;0.68;;;;;;;12.58;80.97;99817.28;5130248;28;20474;-82
2023/01/08 12:06:42;;;;;;;2.67;0.68;;;;;;;12.46;80.06;99820.13;5131122;27;20061;-84
2023/01/08 12:09:30;;;;;;;2.78;0.60;;;;;;;12.59;77.74;99810.72;5130352;28;20123;-85
2023/01/08 12:12:16;;;;;;;;;;;;;;;;;;;;;
2023/01/08 12:14:45;;;;;;;3.05;0.40;;;;;;;13.92;71.67;99816.63;5130801;28;20031;-88
2023/01/08 12:17:44;;;;;;;3.03;0.50;;;;;;;13.71;74.05;99803.94;5124255;28;20053;-87
2023/01/08 12:20:46;;;;;;;2.65;0.70;;;;;;;12.58;77.13;99801.75;5129508;28;20057;-87
2023/01/08 12:23:59;;;;;;;2.88;0.60;;;;;;;11.72;80.27;99813.06;5128939;28;20027;-87
2023/01/08 12:26:49;;;;;;;5.80;0.90;;;;;;;11.13;80.45;99802.59;5040893;27;20028;-87
2023/01/08 12:29:21;;;;;;;3.47;0.65;;;;;;;11.04;81.75;99815.72;5129812;28;20122;-86
2023/01/08 12:32:13;;;;;;;2.53;0.57;;;;;;;10.95;81.54;99809.88;5130819;28;20027;-86
2023/01/08 12:35:02;;;;;;;3.03;0.60;;;;;;;10.53;81.88;99805.56;5129029;28;20054;-87